Time;durP1;ratioP1;P1;durP2;ratioP2;P2;SDS_P1;SDS_P2;PMS_P1;PMS_P2;Temp;Humidity;BMP_temperature;BMP_pressure;BME280_temperature;BME280_humidity;BME280_pressure;Samples;Min_cycle;Max_cycle;Signal;HPM_P1;HPM_P2
2022/10/28 00:01:34;;;;;;;8.98;4.50;;;13.70;99.90;;;;;;6127949;19;20266;-69
2022/10/28 00:03:41;;;;;;;9.25;4.60;;;13.80;99.90;;;;;;6129562;19;19951;-70
2022/10/28 00:05:48;;;;;;;8.98;4.22;;;13.60;99.90;;;;;;6128733;19;19931;-70
2022/10/28 00:07:51;;;;;;;9.85;4.40;;;13.60;99.90;;;;;;6126961;19;19926;-70
2022/10/28 00:09:55;;;;;;;8.07;4.68;;;13.80;99.90;;;;;;6126993;19;19946;-68
2022/10/28 00:11:59;;;;;;;7.55;4.10;;;13.70;99.90;;;;;;6128172;19;19914;-69
2022/10/28 00:14:06;;;;;;;8.52;4.80;;;13.60;99.90;;;;;;6127145;19;19914;-69
2022/10/28 00:16:12;;;;;;;11.63;5.15;;;13.70;99.90;;;;;;6130268;19;20283;-69
2022/10/28 00:18:16;;;;;;;12.95;4.45;;;13.80;99.90;;;;;;6128615;19;19959;-70
2022/10/28 00:20:20;;;;;;;9.52;5.20;;;13.70;99.90;;;;;;6129846;19;19934;-69
2022/10/28 00:22:26;;;;;;;8.10;4.60;;;14.00;99.90;;;;;;6127996;19;19915;-69
2022/10/28 00:24:30;;;;;;;10.63;4.40;;;14.00;99.90;;;;;;6126717;19;19922;-69
2022/10/28 00:26:36;;;;;;;9.23;5.13;;;13.70;99.90;;;;;;6127182;19;20013;-69
2022/10/28 00:28:45;;;;;;;8.95;4.40;;;13.90;99.90;;;;;;6127210;19;20336;-69
2022/10/28 00:30:49;;;;;;;8.93;4.45;;;14.60;99.90;;;;;;6129881;19;19919;-69
2022/10/28 00:32:54;;;;;;;8.18;4.38;;;13.80;99.90;;;;;;6127432;19;19917;-69
2022/10/28 00:34:58;;;;;;;6.90;4.45;;;13.70;99.90;;;;;;6129542;19;20245;-70
2022/10/28 00:37:02;;;;;;;10.25;4.40;;;14.60;99.90;;;;;;6127395;19;19923;-71
2022/10/28 00:39:12;;;;;;;10.15;4.93;;;13.90;99.90;;;;;;6125836;19;20341;-70
2022/10/28 00:41:19;;;;;;;11.20;5.05;;;14.00;99.90;;;;;;6129049;19;19914;-70
2022/10/28 00:43:35;;;;;;;14.38;5.45;;;14.00;99.90;;;;;;6126021;19;20387;-70
2022/10/28 00:45:40;;;;;;;10.10;4.82;;;14.00;99.90;;;;;;6128076;19;19915;-70
2022/10/28 00:47:54;;;;;;;16.30;7.22;;;14.10;99.90;;;;;;6126552;19;19939;-70
2022/10/28 00:50:03;;;;;;;12.00;5.43;;;14.20;99.90;;;;;;6126343;19;19926;-70
2022/10/28 00:52:10;;;;;;;11.85;5.72;;;14.10;99.90;;;;;;6130236;19;19986;-70
2022/10/28 00:54:18;;;;;;;13.27;5.00;;;14.30;99.90;;;;;;6126040;19;19922;-70
2022/10/28 00:56:22;;;;;;;7.72;4.85;;;13.90;99.90;;;;;;6121021;19;19933;-70
2022/10/28 00:58:28;;;;;;;11.30;5.80;;;14.00;99.90;;;;;;6126805;19;20268;-70
2022/10/28 01:00:32;;;;;;;10.88;5.20;;;14.00;99.90;;;;;;6128632;19;19915;-70
2022/10/28 01:02:43;;;;;;;9.43;5.18;;;14.10;99.90;;;;;;6129110;19;19919;-70
2022/10/28 01:04:48;;;;;;;13.45;5.25;;;13.90;99.90;;;;;;6130013;19;19923;-70
2022/10/28 01:06:53;;;;;;;12.30;5.53;;;14.00;99.90;;;;;;6126148;19;20508;-70
2022/10/28 01:08:57;;;;;;;11.07;5.30;;;14.00;99.90;;;;;;6124774;19;19946;-70
2022/10/28 01:11:19;;;;;;;11.77;5.32;;;14.10;99.90;;;;;;6126380;19;19943;-70
2022/10/28 01:13:34;;;;;;;14.38;5.15;;;14.10;99.90;;;;;;6125912;19;19957;-70
2022/10/28 01:15:46;;;;;;;9.40;5.20;;;14.20;99.90;;;;;;6122281;19;19990;-70
2022/10/28 01:18:01;;;;;;;10.88;5.88;;;14.00;99.90;;;;;;6127418;19;20350;-70
2022/10/28 01:20:27;;;;;;;11.43;5.25;;;14.40;99.90;;;;;;6127629;19;19922;-70
2022/10/28 01:22:35;;;;;;;12.68;5.90;;;14.00;99.90;;;;;;6125777;19;19939;-69
2022/10/28 01:24:56;;;;;;;12.98;5.60;;;13.90;99.90;;;;;;6127600;19;19915;-69
2022/10/28 01:27:33;;;;;;;12.27;5.07;;;13.40;99.90;;;;;;6125864;19;19925;-69
2022/10/28 01:30:10;;;;;;;11.32;5.13;;;14.10;99.90;;;;;;6128003;19;19921;-69
2022/10/28 01:32:23;;;;;;;11.63;4.78;;;13.90;99.90;;;;;;6128155;19;19951;-69
2022/10/28 01:34:33;;;;;;;14.20;4.85;;;13.90;99.90;;;;;;6126582;19;20418;-69
2022/10/28 01:36:42;;;;;;;10.27;5.63;;;13.90;99.90;;;;;;6125821;19;19915;-69
2022/10/28 01:38:58;;;;;;;10.43;5.95;;;13.90;99.90;;;;;;6132195;19;19959;-68
2022/10/28 01:41:11;;;;;;;12.05;5.88;;;13.80;99.90;;;;;;6123123;19;19947;-69
2022/10/28 01:43:20;;;;;;;8.57;5.30;;;13.60;99.90;;;;;;6132475;19;20277;-70
2022/10/28 01:45:30;;;;;;;9.15;5.38;;;14.10;99.90;;;;;;6130773;19;19919;-69
2022/10/28 01:47:42;;;;;;;12.98;6.22;;;14.70;99.90;;;;;;6132207;19;19922;-69
2022/10/28 01:49:53;;;;;;;8.93;4.63;;;13.80;99.90;;;;;;6132200;19;19918;-70
2022/10/28 01:52:01;;;;;;;7.38;4.75;;;13.70;99.90;;;;;;6133655;19;19918;-70
2022/10/28 01:54:08;;;;;;;12.63;5.47;;;13.70;99.90;;;;;;6131501;19;19915;-69
2022/10/28 01:56:17;;;;;;;11.98;5.25;;;13.60;99.90;;;;;;6131776;19;19922;-69
2022/10/28 01:58:26;;;;;;;15.57;6.05;;;13.70;99.90;;;;;;6128037;19;19943;-70
2022/10/28 02:00:30;;;;;;;11.85;5.30;;;14.20;99.90;;;;;;6131524;19;19922;-70
2022/10/28 02:02:39;;;;;;;9.80;4.95;;;13.60;99.90;;;;;;6132384;19;19918;-70
2022/10/28 02:04:43;;;;;;;12.13;5.07;;;13.80;99.90;;;;;;6126760;19;19919;-70
2022/10/28 02:06:51;;;;;;;9.18;4.85;;;13.80;99.90;;;;;;6130564;19;19910;-70
2022/10/28 02:09:05;;;;;;;15.13;5.22;;;13.60;99.90;;;;;;6129848;19;19984;-69
2022/10/28 02:11:32;;;;;;;11.60;5.03;;;13.60;99.90;;;;;;6131378;19;19923;-70
2022/10/28 02:13:45;;;;;;;11.32;5.18;;;13.60;99.90;;;;;;6129986;19;19918;-70
2022/10/28 02:15:55;;;;;;;10.13;4.72;;;13.50;99.90;;;;;;6130679;19;19923;-69
2022/10/28 02:18:19;;;;;;;11.73;5.20;;;13.50;99.90;;;;;;6130186;19;19911;-70
2022/10/28 02:20:34;;;;;;;9.93;5.55;;;13.60;99.90;;;;;;6132036;19;19919;-69
2022/10/28 02:22:46;;;;;;;10.20;5.32;;;13.20;99.90;;;;;;6133255;19;19919;-69
2022/10/28 02:24:57;;;;;;;11.57;5.25;;;13.60;99.90;;;;;;6130439;19;19933;-69
2022/10/28 02:27:06;;;;;;;11.20;5.70;;;13.30;99.90;;;;;;6129617;19;20032;-69
2022/10/28 02:29:17;;;;;;;12.38;6.00;;;13.40;99.90;;;;;;6130072;19;19918;-69
2022/10/28 02:31:25;;;;;;;15.43;6.00;;;13.50;99.90;;;;;;6131705;19;19922;-70
2022/10/28 02:33:37;;;;;;;14.93;5.72;;;13.40;99.90;;;;;;6129213;19;19921;-69
2022/10/28 02:35:46;;;;;;;9.23;5.25;;;13.30;99.90;;;;;;6132717;19;19922;-69
2022/10/28 02:37:55;;;;;;;13.32;6.00;;;13.00;99.90;;;;;;6131097;19;20011;-69
2022/10/28 02:40:03;;;;;;;11.82;5.47;;;13.20;99.90;;;;;;6131248;19;19922;-69
2022/10/28 02:42:11;;;;;;;16.27;6.05;;;13.10;99.90;;;;;;6129511;19;20268;-69
2022/10/28 02:44:19;;;;;;;11.95;5.78;;;13.20;99.90;;;;;;6127940;19;19907;-69
2022/10/28 02:46:24;;;;;;;10.55;5.57;;;13.40;99.90;;;;;;6129044;19;19950;-69
2022/10/28 02:48:37;;;;;;;11.77;5.20;;;13.20;99.90;;;;;;6123378;19;19918;-69
2022/10/28 02:50:47;;;;;;;11.98;5.60;;;13.20;99.90;;;;;;6128157;19;20340;-69
2022/10/28 02:52:57;;;;;;;9.55;5.05;;;12.80;99.90;;;;;;6132856;19;19919;-69
2022/10/28 02:55:03;;;;;;;9.13;5.20;;;13.20;99.90;;;;;;6130255;19;19935;-69
2022/10/28 02:57:11;;;;;;;8.88;5.28;;;13.40;99.90;;;;;;6129203;19;20346;-69
2022/10/28 02:59:15;;;;;;;13.45;5.68;;;13.40;99.90;;;;;;6129160;19;20225;-68
2022/10/28 03:01:19;;;;;;;9.35;5.35;;;13.20;99.90;;;;;;6132115;19;19918;-69
2022/10/28 03:03:23;;;;;;;9.45;5.80;;;;;;;;;;6128653;19;20251;-69
2022/10/28 03:05:30;;;;;;;13.00;6.15;;;13.10;99.90;;;;;;6124031;19;19922;-69
2022/10/28 03:07:33;;;;;;;11.10;5.28;;;13.00;99.90;;;;;;6130809;19;19918;-69
2022/10/28 03:09:38;;;;;;;13.07;6.20;;;13.20;99.90;;;;;;6129970;19;19947;-69
2022/10/28 03:11:42;;;;;;;14.20;6.28;;;12.90;99.90;;;;;;6132265;19;20673;-69
2022/10/28 03:13:46;;;;;;;12.10;5.45;;;12.90;99.90;;;;;;6127385;19;19910;-69
2022/10/28 03:15:50;;;;;;;9.63;5.45;;;12.90;99.90;;;;;;6132241;19;19923;-69
2022/10/28 03:17:54;;;;;;;11.10;5.00;;;13.10;99.90;;;;;;6129276;19;19982;-69
2022/10/28 03:19:58;;;;;;;13.52;5.82;;;13.10;99.90;;;;;;6129083;19;20326;-71
2022/10/28 03:22:05;;;;;;;12.90;5.50;;;13.20;99.90;;;;;;6127737;19;19921;-70
2022/10/28 03:24:09;;;;;;;20.38;6.10;;;13.10;99.90;;;;;;6126438;19;19921;-70
2022/10/28 03:26:13;;;;;;;8.82;5.63;;;13.20;99.90;;;;;;6132085;19;19915;-70
2022/10/28 03:28:17;;;;;;;12.73;5.97;;;13.20;99.90;;;;;;6127139;19;19941;-70
2022/10/28 03:30:20;;;;;;;10.40;5.68;;;13.20;99.90;;;;;;6129305;19;19922;-70
2022/10/28 03:32:25;;;;;;;13.30;5.82;;;13.10;99.90;;;;;;6131391;19;19919;-70
2022/10/28 03:34:29;;;;;;;8.48;5.25;;;13.20;99.90;;;;;;6128643;19;19947;-69
2022/10/28 03:36:33;;;;;;;13.88;5.50;;;13.30;99.90;;;;;;6129431;19;19942;-70
2022/10/28 03:38:39;;;;;;;12.82;5.60;;;13.40;99.90;;;;;;6122521;19;19910;-70
2022/10/28 03:40:43;;;;;;;10.55;5.68;;;;;;;;;;6131499;19;19919;-69
2022/10/28 03:42:47;;;;;;;9.30;6.00;;;13.20;99.90;;;;;;6128027;19;20336;-69
2022/10/28 03:44:51;;;;;;;8.80;5.35;;;;;;;;;;6126700;19;20399;-70
2022/10/28 03:46:55;;;;;;;11.23;5.65;;;;;;;;;;6128059;19;19915;-69
2022/10/28 03:48:59;;;;;;;10.80;5.82;;;12.60;99.90;;;;;;6128035;19;20336;-70
2022/10/28 03:51:04;;;;;;;10.52;5.15;;;13.00;99.90;;;;;;6128531;19;19915;-70
2022/10/28 03:53:08;;;;;;;10.60;5.88;;;13.10;99.90;;;;;;6128184;19;19915;-69
2022/10/28 03:55:14;;;;;;;13.18;5.50;;;13.10;99.90;;;;;;6127985;19;19931;-69
2022/10/28 03:57:18;;;;;;;9.38;5.70;;;13.00;99.90;;;;;;6124191;19;19927;-69
2022/10/28 03:59:22;;;;;;;12.77;6.35;;;12.80;99.90;;;;;;6128626;19;19959;-69
2022/10/28 04:01:26;;;;;;;9.93;5.20;;;13.00;99.90;;;;;;6128989;19;19929;-70
2022/10/28 04:03:30;;;;;;;15.57;6.22;;;12.90;99.90;;;;;;6129927;19;19919;-70
2022/10/28 04:05:34;;;;;;;14.10;5.72;;;13.00;99.90;;;;;;6126014;19;19922;-70
2022/10/28 04:07:38;;;;;;;12.00;6.40;;;13.00;99.90;;;;;;6128745;19;19939;-70
2022/10/28 04:09:42;;;;;;;9.48;5.30;;;12.90;99.90;;;;;;6125967;19;19918;-69
2022/10/28 04:11:50;;;;;;;11.35;5.82;;;13.00;99.90;;;;;;6130306;19;19911;-70
2022/10/28 04:13:54;;;;;;;12.55;5.32;;;12.80;99.90;;;;;;6126406;19;20392;-70
2022/10/28 04:15:58;;;;;;;9.40;5.32;;;12.90;99.90;;;;;;6127233;19;19910;-70
2022/10/28 04:18:02;;;;;;;12.80;6.07;;;12.80;99.90;;;;;;6127132;19;19914;-70
2022/10/28 04:20:07;;;;;;;14.88;7.00;;;13.00;99.90;;;;;;6127586;19;19918;-70
2022/10/28 04:22:11;;;;;;;9.23;5.50;;;12.80;99.90;;;;;;6127131;19;19926;-70
2022/10/28 04:24:15;;;;;;;10.57;4.97;;;12.80;99.90;;;;;;6127173;19;19919;-69
2022/10/28 04:26:19;;;;;;;12.07;6.28;;;12.70;99.90;;;;;;6130153;19;19926;-70
2022/10/28 04:28:26;;;;;;;12.80;5.65;;;12.90;99.90;;;;;;6127105;19;19919;-70
2022/10/28 04:30:30;;;;;;;7.93;5.72;;;12.90;99.90;;;;;;6127638;19;19918;-69
2022/10/28 04:32:35;;;;;;;12.45;6.07;;;12.60;99.90;;;;;;6127154;19;19978;-69
2022/10/28 04:34:39;;;;;;;10.75;6.13;;;13.10;99.90;;;;;;6127173;19;19917;-70
2022/10/28 04:36:43;;;;;;;13.07;5.70;;;13.10;99.90;;;;;;6126469;19;19974;-69
2022/10/28 04:38:50;;;;;;;10.43;5.93;;;12.90;99.90;;;;;;6128970;19;19935;-69
2022/10/28 04:40:54;;;;;;;10.35;5.70;;;;;;;;;;6127106;19;19918;-70
2022/10/28 04:42:58;;;;;;;9.13;5.47;;;13.00;99.90;;;;;;6129698;19;19923;-70
2022/10/28 04:45:05;;;;;;;12.30;5.53;;;12.60;99.90;;;;;;6127647;19;19935;-69
2022/10/28 04:47:09;;;;;;;11.35;5.38;;;12.90;99.90;;;;;;6127132;19;20308;-69
2022/10/28 04:49:13;;;;;;;10.25;4.90;;;12.90;99.90;;;;;;6127529;19;19918;-70
2022/10/28 04:51:17;;;;;;;11.20;6.57;;;12.80;99.90;;;;;;6127473;19;19990;-69
2022/10/28 04:53:21;;;;;;;9.68;6.18;;;;;;;;;;6119567;19;20292;-69
2022/10/28 04:55:25;;;;;;;11.50;5.70;;;12.80;99.90;;;;;;6123604;19;19930;-69
2022/10/28 04:57:29;;;;;;;10.20;5.30;;;12.50;99.90;;;;;;6128199;19;20245;-69
2022/10/28 04:59:33;;;;;;;12.40;5.85;;;12.70;99.90;;;;;;6119237;19;19920;-69
2022/10/28 05:01:39;;;;;;;9.13;5.18;;;12.60;99.90;;;;;;6127972;19;19907;-70
2022/10/28 05:03:44;;;;;;;12.38;5.25;;;12.40;99.90;;;;;;6126584;19;19918;-70
2022/10/28 05:05:48;;;;;;;10.95;6.00;;;12.30;99.90;;;;;;6126955;19;19942;-70
2022/10/28 05:07:52;;;;;;;13.10;5.28;;;12.90;99.90;;;;;;6126228;19;20255;-70
2022/10/28 05:09:56;;;;;;;16.08;6.13;;;12.90;99.90;;;;;;6126255;19;20340;-69
2022/10/28 05:12:00;;;;;;;11.40;6.45;;;12.70;99.90;;;;;;6130068;19;19930;-70
2022/10/28 05:14:04;;;;;;;9.50;5.28;;;12.70;99.90;;;;;;6131571;19;20348;-69
2022/10/28 05:16:10;;;;;;;12.40;5.40;;;12.30;99.90;;;;;;6130894;19;20340;-69
2022/10/28 05:18:16;;;;;;;9.30;4.97;;;12.70;99.90;;;;;;6130512;19;20025;-69
2022/10/28 05:20:22;;;;;;;10.57;5.22;;;12.70;99.90;;;;;;6135221;19;19922;-69
2022/10/28 05:22:26;;;;;;;8.80;5.35;;;12.60;99.90;;;;;;6131234;19;20382;-69
2022/10/28 05:24:30;;;;;;;10.05;5.03;;;12.50;99.90;;;;;;6132807;19;19919;-69
2022/10/28 05:26:34;;;;;;;8.95;5.30;;;;;;;;;;6131547;19;19995;-69
2022/10/28 05:28:38;;;;;;;12.02;5.57;;;12.60;99.90;;;;;;6131192;19;19934;-69
2022/10/28 05:30:42;;;;;;;11.10;5.30;;;12.80;99.90;;;;;;6131708;19;19919;-69
2022/10/28 05:32:47;;;;;;;9.88;5.05;;;12.70;99.90;;;;;;6133189;19;19911;-70
2022/10/28 05:34:53;;;;;;;8.88;4.63;;;12.50;99.90;;;;;;6121302;19;19925;-69
2022/10/28 05:36:57;;;;;;;11.20;5.13;;;12.60;99.90;;;;;;6125169;19;19943;-69
2022/10/28 05:39:01;;;;;;;11.35;5.07;;;12.70;99.90;;;;;;6126501;19;19932;-69
2022/10/28 05:41:05;;;;;;;12.13;5.90;;;12.60;99.90;;;;;;6123938;19;20377;-69
2022/10/28 05:43:11;;;;;;;13.60;5.43;;;12.70;99.90;;;;;;6131619;19;19982;-69
2022/10/28 05:45:15;;;;;;;9.23;4.78;;;12.60;99.90;;;;;;6132604;19;20351;-69
2022/10/28 05:47:19;;;;;;;13.55;5.53;;;12.80;99.90;;;;;;6129047;19;19921;-69
2022/10/28 05:49:30;;;;;;;11.02;5.60;;;;;;;;;;6130155;19;19919;-69
2022/10/28 05:51:36;;;;;;;14.43;5.65;;;12.20;99.90;;;;;;6131042;19;19907;-69
2022/10/28 05:53:41;;;;;;;12.60;4.68;;;12.70;99.90;;;;;;6130262;19;19918;-69
2022/10/28 05:55:44;;;;;;;10.30;4.93;;;12.70;99.90;;;;;;6130540;19;19926;-69
2022/10/28 05:57:49;;;;;;;10.80;4.93;;;12.60;99.90;;;;;;6129844;19;19919;-70
2022/10/28 05:59:53;;;;;;;13.65;6.15;;;12.50;99.90;;;;;;6126989;19;19929;-70
2022/10/28 06:01:57;;;;;;;11.73;5.13;;;12.50;99.90;;;;;;6133468;19;19932;-70
2022/10/28 06:04:01;;;;;;;14.35;5.95;;;12.30;99.90;;;;;;6131592;19;19931;-70
2022/10/28 06:06:05;;;;;;;14.32;5.05;;;13.10;99.90;;;;;;6131525;19;19954;-70
2022/10/28 06:08:12;;;;;;;11.05;5.80;;;12.50;99.90;;;;;;6130526;19;19950;-69
2022/10/28 06:10:16;;;;;;;11.00;6.03;;;12.50;99.90;;;;;;6132764;19;19923;-69
2022/10/28 06:12:20;;;;;;;12.45;5.53;;;12.60;99.90;;;;;;6130335;19;19931;-69
2022/10/28 06:14:25;;;;;;;12.55;5.68;;;12.90;99.90;;;;;;6130847;19;19914;-70
2022/10/28 06:16:29;;;;;;;8.95;5.88;;;13.40;99.90;;;;;;6131178;19;19943;-70
2022/10/28 06:18:33;;;;;;;10.73;5.40;;;12.40;99.90;;;;;;6129924;19;20347;-70
2022/10/28 06:20:37;;;;;;;13.18;5.10;;;12.50;99.90;;;;;;6131586;19;19918;-70
2022/10/28 06:22:49;;;;;;;9.43;4.95;;;12.60;99.90;;;;;;6128169;19;19914;-69
2022/10/28 06:24:56;;;;;;;14.48;5.32;;;12.90;99.90;;;;;;6130041;19;20352;-69
2022/10/28 06:27:00;;;;;;;9.85;5.18;;;12.50;99.90;;;;;;6132496;19;19918;-69
2022/10/28 06:29:04;;;;;;;11.23;5.35;;;12.60;99.90;;;;;;6129754;19;19926;-69
2022/10/28 06:31:10;;;;;;;9.25;5.30;;;12.60;99.90;;;;;;6130987;19;19919;-69
2022/10/28 06:33:15;;;;;;;13.88;5.10;;;12.50;99.90;;;;;;6123054;19;19914;-70
2022/10/28 06:35:19;;;;;;;10.75;4.90;;;12.40;99.90;;;;;;6128333;19;19922;-70
2022/10/28 06:37:23;;;;;;;10.05;4.82;;;12.40;99.90;;;;;;6130755;19;19927;-70
2022/10/28 06:39:27;;;;;;;10.73;6.20;;;;;;;;;;6123268;19;19925;-69
2022/10/28 06:41:34;;;;;;;10.13;5.60;;;12.50;99.90;;;;;;6131450;19;19922;-70
2022/10/28 06:43:38;;;;;;;17.60;5.68;;;12.80;99.90;;;;;;6132649;19;19934;-70
2022/10/28 06:45:42;;;;;;;11.18;4.65;;;12.40;99.90;;;;;;6129722;19;19942;-70
2022/10/28 06:47:46;;;;;;;8.70;4.90;;;12.70;99.90;;;;;;6131607;19;20270;-70
2022/10/28 06:49:50;;;;;;;11.13;4.97;;;12.50;99.90;;;;;;6131730;19;19922;-70
2022/10/28 06:51:54;;;;;;;13.00;5.03;;;12.90;99.90;;;;;;6131486;19;19918;-70
2022/10/28 06:53:58;;;;;;;9.52;4.72;;;12.90;99.90;;;;;;6129474;19;19922;-70
2022/10/28 06:56:02;;;;;;;13.68;5.25;;;12.90;99.90;;;;;;6132269;19;19914;-70
2022/10/28 06:58:08;;;;;;;9.68;5.28;;;12.80;99.90;;;;;;6130613;19;20280;-70
2022/10/28 07:00:14;;;;;;;9.50;5.18;;;13.10;99.90;;;;;;6130022;19;19922;-69
2022/10/28 07:02:18;;;;;;;11.23;5.13;;;13.00;99.90;;;;;;6131191;19;19995;-69
2022/10/28 07:04:22;;;;;;;13.82;4.93;;;;;;;;;;6129332;19;19942;-69
2022/10/28 07:06:26;;;;;;;8.30;4.82;;;12.90;99.90;;;;;;6126588;19;20465;-69
2022/10/28 07:08:31;;;;;;;13.18;4.85;;;12.90;99.90;;;;;;6129208;19;19943;-69
2022/10/28 07:10:35;;;;;;;9.23;4.93;;;12.80;99.90;;;;;;6130969;19;19926;-68
2022/10/28 07:12:39;;;;;;;9.45;5.03;;;13.00;99.90;;;;;;6132084;19;19940;-68
2022/10/28 07:14:46;;;;;;;7.57;4.85;;;13.10;99.90;;;;;;6128006;19;20259;-68
2022/10/28 07:16:50;;;;;;;13.13;5.28;;;;;;;;;;6127514;19;19986;-69
2022/10/28 07:18:54;;;;;;;8.68;4.90;;;12.90;99.90;;;;;;6128981;19;20317;-69
2022/10/28 07:21:02;;;;;;;8.32;4.85;;;13.20;99.90;;;;;;6130726;19;19929;-69
2022/10/28 07:23:06;;;;;;;14.13;4.68;;;13.10;99.90;;;;;;6122103;19;19942;-69
2022/10/28 07:25:11;;;;;;;13.02;5.05;;;13.20;99.90;;;;;;6129900;19;20495;-69
2022/10/28 07:27:15;;;;;;;11.95;5.03;;;13.10;99.90;;;;;;6128196;19;20346;-69
2022/10/28 07:29:20;;;;;;;12.27;4.80;;;13.10;99.90;;;;;;6129068;19;20357;-69
2022/10/28 07:31:26;;;;;;;13.18;5.15;;;13.30;99.90;;;;;;6128055;19;19911;-69
2022/10/28 07:33:31;;;;;;;9.05;4.80;;;13.40;99.90;;;;;;6129436;19;20013;-70
2022/10/28 07:35:35;;;;;;;13.52;5.07;;;13.30;99.90;;;;;;6127702;19;19924;-69
2022/10/28 07:37:40;;;;;;;10.35;5.18;;;13.70;99.90;;;;;;6121918;19;19963;-69
2022/10/28 07:39:44;;;;;;;11.88;4.80;;;13.80;99.90;;;;;;6126630;19;19978;-69
2022/10/28 07:41:48;;;;;;;13.85;4.80;;;14.10;99.90;;;;;;6130199;19;19923;-69
2022/10/28 07:43:52;;;;;;;9.98;5.60;;;14.10;99.90;;;;;;6121627;19;19926;-69
2022/10/28 07:45:59;;;;;;;12.30;4.68;;;14.10;99.90;;;;;;6127032;19;20006;-69
2022/10/28 07:48:07;;;;;;;12.82;4.65;;;13.50;99.90;;;;;;6129888;19;20284;-69
2022/10/28 07:50:12;;;;;;;9.70;4.80;;;13.90;99.90;;;;;;6126421;19;20357;-69
2022/10/28 07:52:16;;;;;;;11.30;5.35;;;13.70;99.90;;;;;;6129029;19;20382;-69
2022/10/28 07:54:20;;;;;;;9.48;4.97;;;14.40;99.90;;;;;;6120417;19;20257;-69
2022/10/28 07:56:25;;;;;;;6.82;4.25;;;14.20;99.90;;;;;;6125709;19;19922;-69
2022/10/28 07:58:29;;;;;;;14.13;4.88;;;14.00;99.90;;;;;;6122076;19;19915;-69
2022/10/28 08:00:33;;;;;;;9.90;4.45;;;;;;;;;;6130214;19;19918;-69
2022/10/28 08:02:38;;;;;;;13.02;5.57;;;14.00;99.90;;;;;;6128865;19;19919;-69
2022/10/28 08:04:44;;;;;;;9.45;4.60;;;14.10;99.90;;;;;;6129477;19;20237;-68
2022/10/28 08:06:48;;;;;;;12.75;5.43;;;14.30;99.90;;;;;;6126443;19;19926;-69
2022/10/28 08:08:56;;;;;;;11.60;4.88;;;14.30;99.90;;;;;;6126970;19;20290;-69
2022/10/28 08:11:00;;;;;;;11.20;4.38;;;14.00;99.90;;;;;;6130880;19;19918;-69
2022/10/28 08:13:05;;;;;;;11.48;5.70;;;14.10;99.90;;;;;;6118875;19;19914;-69
2022/10/28 08:15:11;;;;;;;12.85;4.90;;;14.40;99.90;;;;;;6127338;19;20281;-69
2022/10/28 08:17:17;;;;;;;10.77;5.22;;;13.50;99.90;;;;;;6121445;19;19926;-69
2022/10/28 08:19:21;;;;;;;12.60;4.88;;;14.40;99.90;;;;;;6121490;19;19915;-68
2022/10/28 08:21:27;;;;;;;11.70;4.07;;;15.00;99.90;;;;;;6126841;19;19921;-68
2022/10/28 08:23:32;;;;;;;9.38;4.90;;;14.60;99.90;;;;;;6127485;19;19925;-69
2022/10/28 08:25:36;;;;;;;12.25;5.40;;;14.70;99.90;;;;;;6127283;19;19918;-68
2022/10/28 08:27:41;;;;;;;10.95;4.88;;;14.50;99.90;;;;;;6127071;19;20276;-68
2022/10/28 08:29:45;;;;;;;11.57;5.00;;;14.70;99.90;;;;;;6128156;19;19910;-69
2022/10/28 08:31:48;;;;;;;11.55;4.68;;;15.10;99.90;;;;;;6127222;19;20340;-69
2022/10/28 08:33:53;;;;;;;12.95;5.43;;;15.00;99.90;;;;;;6125819;19;19923;-69
2022/10/28 08:35:57;;;;;;;26.63;15.40;;;14.80;99.90;;;;;;6126432;19;19914;-69
2022/10/28 08:38:04;;;;;;;14.07;6.10;;;14.50;99.90;;;;;;6126331;19;19915;-69
2022/10/28 08:40:11;;;;;;;12.80;5.38;;;15.50;99.90;;;;;;6124926;19;19914;-69
2022/10/28 08:42:34;;;;;;;11.30;4.80;;;15.30;99.90;;;;;;6127716;19;19986;-69
2022/10/28 08:45:04;;;;;;;9.13;4.78;;;15.00;99.90;;;;;;6127492;19;19926;-69
2022/10/28 08:47:19;;;;;;;11.32;4.10;;;14.90;99.90;;;;;;6123672;19;19918;-69
2022/10/28 08:49:25;;;;;;;11.10;4.28;;;15.30;99.90;;;;;;6125564;19;19943;-69
2022/10/28 08:51:38;;;;;;;15.48;5.13;;;15.60;99.90;;;;;;6126261;19;19911;-69
2022/10/28 08:53:49;;;;;;;10.18;5.30;;;15.80;99.90;;;;;;6126523;19;20319;-69
2022/10/28 08:55:54;;;;;;;9.05;4.63;;;15.50;99.90;;;;;;6126432;19;19923;-69
2022/10/28 08:58:02;;;;;;;10.57;4.38;;;15.40;99.90;;;;;;6129149;19;19934;-69
2022/10/28 09:00:10;;;;;;;13.30;5.10;;;15.40;99.90;;;;;;6127917;19;19918;-69
2022/10/28 09:02:22;;;;;;;12.20;4.50;;;15.40;99.90;;;;;;6129439;19;20039;-69
2022/10/28 09:04:31;;;;;;;7.15;4.25;;;15.70;99.90;;;;;;6127003;19;20009;-69
2022/10/28 09:06:35;;;;;;;;;;;15.70;99.90;;;;;;6127341;19;20289;-69
2022/10/28 09:08:42;;;;;;;6.85;4.70;;;15.40;99.90;;;;;;6125508;19;19915;-69
2022/10/28 09:11:05;;;;;;;12.75;4.85;;;15.80;99.90;;;;;;6118742;19;19934;-69
2022/10/28 09:13:17;;;;;;;11.35;4.32;;;15.80;99.90;;;;;;6127366;19;19954;-69
2022/10/28 09:15:29;;;;;;;8.88;5.20;;;16.30;99.90;;;;;;6124847;19;19950;-69
2022/10/28 09:17:42;;;;;;;7.90;4.18;;;16.70;99.90;;;;;;6126867;19;19926;-69
2022/10/28 09:19:50;;;;;;;12.48;5.10;;;16.70;99.90;;;;;;6125673;19;19926;-69
2022/10/28 09:22:07;;;;;;;12.95;4.72;;;16.20;99.90;;;;;;6126625;19;19934;-69
2022/10/28 09:24:19;;;;;;;12.30;4.78;;;16.20;99.90;;;;;;6125858;19;19911;-69
2022/10/28 09:26:35;;;;;;;11.40;4.65;;;16.80;99.90;;;;;;6124652;19;19914;-69
2022/10/28 09:28:51;;;;;;;7.60;4.10;;;16.80;99.90;;;;;;6120313;19;19932;-69
2022/10/28 09:31:06;;;;;;;12.18;4.30;;;16.00;99.90;;;;;;6128032;19;19946;-69
2022/10/28 09:33:22;;;;;;;11.52;4.53;;;16.80;99.90;;;;;;6125151;19;19939;-69
2022/10/28 09:35:32;;;;;;;10.75;4.70;;;16.70;99.90;;;;;;6125769;19;19919;-69
2022/10/28 09:37:40;;;;;;;7.70;4.80;;;16.10;99.90;;;;;;6124198;19;19931;-70
2022/10/28 09:39:46;;;;;;;10.98;4.30;;;17.30;99.90;;;;;;6125102;19;20285;-68
2022/10/28 09:41:53;;;;;;;9.90;4.38;;;16.80;99.90;;;;;;6127928;19;19927;-70
2022/10/28 09:44:01;;;;;;;7.95;4.05;;;16.80;99.90;;;;;;6127784;19;19919;-69
2022/10/28 09:46:13;;;;;;;9.80;4.15;;;16.40;99.90;;;;;;6124877;19;19922;-70
2022/10/28 09:48:22;;;;;;;12.27;4.15;;;16.80;99.90;;;;;;6127624;19;20267;-69
2022/10/28 09:50:31;;;;;;;10.98;4.85;;;17.30;99.90;;;;;;6124875;19;19919;-70
2022/10/28 09:52:41;;;;;;;8.70;4.30;;;16.40;99.90;;;;;;6124260;19;19923;-69
2022/10/28 09:54:49;;;;;;;8.55;3.92;;;16.20;99.90;;;;;;6126128;19;20363;-69
2022/10/28 09:56:56;;;;;;;6.55;4.63;;;16.60;99.90;;;;;;6124360;19;19929;-69
2022/10/28 09:59:02;;;;;;;14.88;4.25;;;16.50;99.90;;;;;;6128654;19;19925;-69
2022/10/28 10:01:07;;;;;;;8.43;4.22;;;16.70;99.90;;;;;;6124880;19;19946;-70
2022/10/28 10:03:11;;;;;;;12.90;4.05;;;16.90;99.90;;;;;;6131475;19;19922;-72
2022/10/28 10:05:18;;;;;;;10.52;3.90;;;16.40;99.90;;;;;;6132867;19;19922;-70
2022/10/28 10:07:30;;;;;;;11.75;3.72;;;16.60;99.90;;;;;;6128378;19;19911;-70
2022/10/28 10:09:36;;;;;;;10.48;4.25;;;17.70;99.90;;;;;;6130722;19;19918;-70
2022/10/28 10:11:45;;;;;;;12.00;3.80;;;16.70;99.90;;;;;;6129847;19;19914;-70
2022/10/28 10:13:51;;;;;;;;;;;17.10;99.90;;;;;;6131932;19;20300;-70
2022/10/28 10:15:59;;;;;;;11.55;3.80;;;17.60;99.90;;;;;;6129917;19;19946;-70
2022/10/28 10:18:06;;;;;;;9.85;4.10;;;16.70;99.90;;;;;;6125179;19;19923;-70
2022/10/28 10:20:12;;;;;;;8.50;4.72;;;16.90;99.90;;;;;;6129476;19;19922;-70
2022/10/28 10:22:31;;;;;;;9.27;3.88;;;17.60;99.90;;;;;;6130520;19;19921;-69
2022/10/28 10:24:37;;;;;;;10.77;4.47;;;16.90;99.90;;;;;;6130329;19;19922;-69
2022/10/28 10:26:41;;;;;;;7.85;4.43;;;17.60;99.90;;;;;;6131572;19;19918;-69
2022/10/28 10:28:47;;;;;;;22.00;7.82;;;17.80;99.90;;;;;;6130565;19;19938;-70
2022/10/28 10:30:56;;;;;;;9.68;4.13;;;17.10;99.90;;;;;;6129576;19;20005;-70
2022/10/28 10:33:01;;;;;;;13.05;3.80;;;17.20;99.90;;;;;;6130533;19;19936;-70
2022/10/28 10:35:08;;;;;;;13.52;4.50;;;17.90;99.90;;;;;;6132170;19;19939;-69
2022/10/28 10:37:23;;;;;;;9.65;4.10;;;17.40;99.90;;;;;;6120895;19;19925;-70
2022/10/28 10:39:31;;;;;;;12.45;6.05;;;17.30;99.90;;;;;;6131835;19;20332;-69
2022/10/28 10:41:35;;;;;;;11.65;4.07;;;17.30;99.90;;;;;;6128846;19;20544;-69
2022/10/28 10:43:40;;;;;;;9.88;4.15;;;17.50;99.90;;;;;;6131523;19;19922;-69
2022/10/28 10:45:52;;;;;;;14.02;4.82;;;17.70;99.90;;;;;;6131802;19;19942;-69
2022/10/28 10:48:17;;;;;;;14.65;5.35;;;17.40;99.90;;;;;;6127390;19;19915;-69
2022/10/28 10:50:24;;;;;;;13.40;5.53;;;17.30;99.90;;;;;;6129177;19;19922;-71
2022/10/28 10:52:28;;;;;;;10.30;3.97;;;17.30;99.90;;;;;;6118047;19;19925;-68
2022/10/28 10:54:34;;;;;;;7.63;3.65;;;18.30;99.90;;;;;;6128682;19;19925;-70
2022/10/28 10:56:38;;;;;;;11.70;4.18;;;17.60;99.90;;;;;;6128694;19;19925;-71
2022/10/28 10:58:50;;;;;;;8.57;3.35;;;17.40;99.90;;;;;;6129451;19;19941;-71
2022/10/28 11:00:56;;;;;;;13.20;3.95;;;17.60;99.90;;;;;;6129607;19;19923;-70